createdAt,value
2023-04-15T00:00:12.442Z,28.00
2023-04-15T00:02:46.256Z,28.00
2023-04-15T00:05:14.608Z,28.00
2023-04-15T00:07:42.826Z,28.00
2023-04-15T00:10:11.391Z,28.00
2023-04-15T00:12:39.521Z,28.00
2023-04-15T00:15:09.529Z,28.00
2023-04-15T00:17:37.801Z,28.00
2023-04-15T00:20:07.176Z,28.00
2023-04-15T00:22:35.307Z,28.00
2023-04-15T00:25:03.859Z,28.00
2023-04-15T00:27:32.253Z,28.00
2023-04-15T00:30:00.478Z,28.00
2023-04-15T00:32:28.655Z,28.00
2023-04-15T00:34:56.980Z,28.00
2023-04-15T00:37:25.351Z,28.00
2023-04-15T00:39:53.841Z,28.00
2023-04-15T00:42:22.378Z,28.00
2023-04-15T00:44:50.687Z,28.00
2023-04-15T00:47:20.905Z,28.00
2023-04-15T00:49:49.274Z,27.90
2023-04-15T00:52:17.378Z,27.90
2023-04-15T00:54:45.728Z,27.90
2023-04-15T00:57:13.925Z,27.90
2023-04-15T00:59:42.243Z,27.90
2023-04-15T01:02:10.578Z,27.90
2023-04-15T01:04:38.884Z,27.90
2023-04-15T01:07:07.244Z,27.80
2023-04-15T01:09:35.475Z,27.90
2023-04-15T01:12:04.570Z,27.80
2023-04-15T01:14:34.097Z,27.80
2023-04-15T01:17:02.573Z,27.80
2023-04-15T01:19:31.220Z,27.80
2023-04-15T01:21:59.566Z,27.80
2023-04-15T01:24:30.932Z,27.70
2023-04-15T01:26:59.265Z,27.70
2023-04-15T01:29:27.579Z,27.70
2023-04-15T01:31:56.965Z,27.70
2023-04-15T01:34:27.469Z,27.80
2023-04-15T01:36:55.680Z,27.70
2023-04-15T01:39:23.967Z,27.70
2023-04-15T01:41:52.286Z,27.70
2023-04-15T01:44:20.378Z,27.70
2023-04-15T01:46:48.697Z,27.70
2023-04-15T01:49:16.885Z,27.70
2023-04-15T01:51:45.240Z,27.70
2023-04-15T01:54:14.208Z,27.70
2023-04-15T01:56:42.417Z,27.70
2023-04-15T01:59:11.113Z,27.70
2023-04-15T02:01:39.936Z,27.70
2023-04-15T02:04:08.250Z,27.60
2023-04-15T02:06:36.612Z,27.70
2023-04-15T02:09:04.844Z,27.70
2023-04-15T02:11:33.181Z,27.60
2023-04-15T02:14:01.392Z,27.60
2023-04-15T02:16:29.681Z,27.60
2023-04-15T02:18:58.043Z,27.60
2023-04-15T02:21:27.946Z,27.60
2023-04-15T02:23:56.285Z,27.60
2023-04-15T02:26:24.565Z,27.60
2023-04-15T02:28:55.929Z,27.60
2023-04-15T02:31:24.282Z,27.60
2023-04-15T02:33:53.563Z,27.60
2023-04-15T02:36:21.900Z,27.60
2023-04-15T02:38:50.037Z,27.50
2023-04-15T02:41:18.588Z,27.60
2023-04-15T02:43:47.087Z,27.60
2023-04-15T02:46:15.991Z,27.60
2023-04-15T02:48:44.185Z,27.50
2023-04-15T02:51:19.928Z,27.50
2023-04-15T02:53:49.576Z,27.50
2023-04-15T02:56:17.905Z,27.50
2023-04-15T02:58:46.879Z,27.50
2023-04-15T03:01:15.111Z,27.50
2023-04-15T03:03:43.509Z,27.50
2023-04-15T03:06:16.085Z,27.50
2023-04-15T03:08:45.229Z,27.50
2023-04-15T03:11:15.712Z,27.50
2023-04-15T03:13:44.344Z,27.50
2023-04-15T03:16:24.233Z,27.50
2023-04-15T03:18:52.695Z,27.40
2023-04-15T03:21:22.558Z,27.40
2023-04-15T03:23:50.809Z,27.40
2023-04-15T03:26:31.188Z,27.50
2023-04-15T03:29:07.412Z,27.40
2023-04-15T03:31:35.788Z,27.40
2023-04-15T03:34:04.229Z,27.40
2023-04-15T03:36:32.914Z,27.40
2023-04-15T03:39:01.460Z,27.40
2023-04-15T03:41:29.994Z,27.40
2023-04-15T03:43:58.260Z,27.40
2023-04-15T03:46:26.479Z,27.40
2023-04-15T03:48:54.659Z,27.40
2023-04-15T03:51:22.911Z,27.40
2023-04-15T03:53:51.237Z,27.40
2023-04-15T03:56:19.322Z,27.40
2023-04-15T03:58:47.573Z,27.40
2023-04-15T04:01:15.713Z,27.40
2023-04-15T04:03:44.130Z,27.40
2023-04-15T04:06:12.412Z,27.40
2023-04-15T04:08:40.637Z,27.40
2023-04-15T04:11:08.811Z,27.40
2023-04-15T04:13:37.207Z,27.40
2023-04-15T04:16:05.742Z,27.40
2023-04-15T04:18:34.065Z,27.40
2023-04-15T04:21:02.503Z,27.40
2023-04-15T04:23:30.728Z,27.30
2023-04-15T04:25:58.887Z,27.40
2023-04-15T04:28:27.055Z,27.30
2023-04-15T04:30:55.259Z,27.30
2023-04-15T04:33:23.751Z,27.30
2023-04-15T04:35:51.790Z,27.40
2023-04-15T04:38:20.069Z,27.30
2023-04-15T04:40:48.321Z,27.30
2023-04-15T04:43:16.835Z,27.30
2023-04-15T04:45:44.904Z,27.30
2023-04-15T04:48:13.163Z,27.30
2023-04-15T04:50:41.529Z,27.30
2023-04-15T04:53:09.776Z,27.30
2023-04-15T04:55:37.919Z,27.20
2023-04-15T04:58:06.032Z,27.30
2023-04-15T05:00:34.325Z,27.20
2023-04-15T05:03:02.630Z,27.20
2023-04-15T05:05:30.880Z,27.20
2023-04-15T05:07:59.231Z,27.20
2023-04-15T05:10:27.391Z,27.10
2023-04-15T05:12:55.723Z,27.20
2023-04-15T05:15:23.759Z,27.10
2023-04-15T05:17:52.051Z,27.10
2023-04-15T05:20:20.309Z,27.10
2023-04-15T05:22:48.480Z,27.10
2023-04-15T05:25:16.873Z,27.10
2023-04-15T05:27:45.200Z,27.00
2023-04-15T05:30:13.894Z,27.00
2023-04-15T05:32:42.251Z,27.00
2023-04-15T05:35:10.525Z,27.00
2023-04-15T05:37:38.720Z,27.00
2023-04-15T05:40:07.400Z,27.00
2023-04-15T05:42:36.478Z,27.00
2023-04-15T05:45:05.533Z,27.00
2023-04-15T05:47:33.827Z,27.00
2023-04-15T05:50:02.031Z,27.10
2023-04-15T05:52:30.450Z,27.00
2023-04-15T05:54:58.586Z,27.00
2023-04-15T05:57:26.749Z,27.10
2023-04-15T05:59:54.991Z,27.10
2023-04-15T06:02:23.249Z,27.10
2023-04-15T06:04:51.598Z,27.10
2023-04-15T06:07:19.776Z,27.10
2023-04-15T06:09:48.104Z,27.10
2023-04-15T06:12:16.707Z,27.10
2023-04-15T06:14:44.811Z,27.10
2023-04-15T06:17:13.094Z,27.10
2023-04-15T06:19:41.252Z,27.00
2023-04-15T06:22:10.433Z,27.10
2023-04-15T06:24:38.551Z,27.10
2023-04-15T06:27:06.828Z,27.00
2023-04-15T06:29:34.957Z,27.00
2023-04-15T06:32:03.243Z,26.90
2023-04-15T06:34:31.434Z,26.90
2023-04-15T06:36:59.695Z,26.90
2023-04-15T06:39:28.060Z,27.00
2023-04-15T06:41:56.240Z,26.90
2023-04-15T06:44:24.430Z,26.90
2023-04-15T06:46:52.732Z,26.90
2023-04-15T06:49:20.986Z,26.90
2023-04-15T06:51:49.693Z,26.90
2023-04-15T06:54:17.762Z,26.90
2023-04-15T06:56:46.100Z,26.90
2023-04-15T06:59:14.533Z,26.80
2023-04-15T07:01:42.881Z,26.90
2023-04-15T07:04:11.285Z,26.90
2023-04-15T07:06:39.478Z,26.90
2023-04-15T07:09:07.796Z,26.90
2023-04-15T07:11:36.135Z,26.90
2023-04-15T07:14:04.378Z,26.90
2023-04-15T07:16:32.601Z,26.90
2023-04-15T07:19:01.372Z,26.80
2023-04-15T07:21:29.981Z,26.80
2023-04-15T07:23:58.073Z,26.90
2023-04-15T07:26:26.405Z,26.90
2023-04-15T07:28:54.580Z,26.90
2023-04-15T07:31:23.182Z,26.90
2023-04-15T07:33:51.435Z,26.90
2023-04-15T07:36:19.847Z,26.90
2023-04-15T07:38:48.042Z,26.90
2023-04-15T07:41:16.326Z,27.00
2023-04-15T07:43:44.558Z,26.90
2023-04-15T07:46:12.845Z,27.00
2023-04-15T07:48:41.251Z,27.00
2023-04-15T07:51:09.671Z,27.10
2023-04-15T07:53:37.865Z,27.10
2023-04-15T07:56:06.427Z,27.10
2023-04-15T07:58:34.578Z,27.10
2023-04-15T08:01:03.004Z,27.10
2023-04-15T08:03:31.308Z,27.20
2023-04-15T08:05:59.815Z,27.20
2023-04-15T08:08:27.994Z,27.30
2023-04-15T08:10:56.427Z,27.30
2023-04-15T08:13:24.500Z,27.30
2023-04-15T08:16:15.221Z,27.30
2023-04-15T08:18:43.483Z,27.40
2023-04-15T08:21:12.601Z,27.40
2023-04-15T08:23:41.263Z,27.50
2023-04-15T08:26:09.773Z,27.60
2023-04-15T08:28:40.449Z,27.60
2023-04-15T08:31:09.434Z,27.60
2023-04-15T08:33:37.857Z,27.60
2023-04-15T08:36:06.086Z,27.70
2023-04-15T08:38:34.876Z,27.70
2023-04-15T08:41:22.266Z,27.70
2023-04-15T08:43:57.566Z,27.70
2023-04-15T08:46:26.590Z,27.80
2023-04-15T08:48:58.817Z,27.80
2023-04-15T08:51:27.748Z,27.90
2023-04-15T08:53:56.250Z,28.00
2023-04-15T08:56:28.738Z,28.10
2023-04-15T08:58:57.513Z,28.10
2023-04-15T09:01:26.087Z,28.20
2023-04-15T09:03:54.863Z,28.30
2023-04-15T09:06:24.330Z,28.30
2023-04-15T09:08:53.231Z,28.40
2023-04-15T09:11:23.003Z,28.50
2023-04-15T09:13:51.426Z,28.60
2023-04-15T09:16:19.707Z,28.60
2023-04-15T09:18:47.911Z,28.50
2023-04-15T09:21:17.599Z,28.50
2023-04-15T09:24:00.594Z,28.50
2023-04-15T09:26:47.124Z,28.50
2023-04-15T09:29:15.496Z,28.50
2023-04-15T09:31:43.721Z,28.40
2023-04-15T09:34:12.089Z,28.40
2023-04-15T09:36:50.979Z,28.40
2023-04-15T09:39:19.546Z,28.50
2023-04-15T09:41:47.760Z,28.50
2023-04-15T09:44:25.930Z,28.60
2023-04-15T09:46:54.219Z,28.70
2023-04-15T09:49:22.434Z,28.70
2023-04-15T09:52:01.662Z,28.60
2023-04-15T09:54:37.673Z,28.60
2023-04-15T09:57:10.339Z,28.70
2023-04-15T09:59:38.929Z,28.70
2023-04-15T10:02:07.594Z,28.70
2023-04-15T10:04:42.081Z,28.70
2023-04-15T10:07:12.310Z,28.70
2023-04-15T10:09:40.759Z,28.70
2023-04-15T10:12:09.521Z,28.70
2023-04-15T10:14:39.291Z,28.70
2023-04-15T10:17:11.556Z,28.70
2023-04-15T10:19:41.128Z,28.70
2023-04-15T10:22:09.788Z,28.70
2023-04-15T10:24:39.477Z,28.70
2023-04-15T10:27:08.507Z,28.80
2023-04-15T10:29:37.233Z,28.80
2023-04-15T10:32:05.697Z,29.00
2023-04-15T10:34:34.620Z,29.20
2023-04-15T10:37:03.902Z,29.30
2023-04-15T10:39:43.475Z,29.30
2023-04-15T10:42:16.996Z,29.30
2023-04-15T10:44:49.653Z,29.30
2023-04-15T10:47:20.267Z,29.20
2023-04-15T10:49:57.593Z,29.20
2023-04-15T10:52:28.171Z,29.20
2023-04-15T10:55:15.222Z,29.20
2023-04-15T10:57:44.991Z,29.20
2023-04-15T11:00:17.436Z,29.20
2023-04-15T11:02:59.082Z,29.20
2023-04-15T11:05:53.752Z,29.20
2023-04-15T11:09:00.254Z,29.30
2023-04-15T11:12:13.000Z,29.40
2023-04-15T11:14:42.008Z,29.50
2023-04-15T11:17:10.261Z,29.50
2023-04-15T11:19:39.460Z,29.50
2023-04-15T11:22:11.352Z,29.50
2023-04-15T11:24:47.999Z,29.50
2023-04-15T11:27:23.473Z,29.50
2023-04-15T11:29:51.907Z,29.60
2023-04-15T11:32:22.192Z,29.60
2023-04-15T11:34:53.068Z,29.80
2023-04-15T11:37:29.946Z,29.90
2023-04-15T11:39:58.190Z,30.00
2023-04-15T11:42:31.481Z,30.00
2023-04-15T11:45:08.252Z,30.00
2023-04-15T11:47:42.987Z,30.00
2023-04-15T11:50:24.209Z,30.00
2023-04-15T11:52:55.665Z,30.00
2023-04-15T11:55:24.917Z,29.90
2023-04-15T11:58:19.235Z,29.90
2023-04-15T12:00:52.733Z,29.90
2023-04-15T12:03:31.387Z,29.90
2023-04-15T12:06:22.500Z,29.70
2023-04-15T12:09:13.395Z,29.70
2023-04-15T12:11:50.009Z,29.70
2023-04-15T12:14:29.250Z,29.70
2023-04-15T12:17:00.472Z,29.80
2023-04-15T12:19:39.141Z,29.90
2023-04-15T12:22:11.215Z,29.90
2023-04-15T12:24:40.870Z,29.90
2023-04-15T12:27:11.884Z,29.90
2023-04-15T12:29:41.543Z,29.90
2023-04-15T12:32:15.194Z,29.90
2023-04-15T12:34:54.053Z,30.00
2023-04-15T12:37:22.611Z,30.10
2023-04-15T12:39:51.245Z,30.00
2023-04-15T12:42:19.451Z,30.10
2023-04-15T12:44:47.859Z,30.10
2023-04-15T12:47:16.403Z,30.20
2023-04-15T12:49:44.575Z,30.10
2023-04-15T12:52:12.731Z,30.10
2023-04-15T12:54:41.141Z,30.10
2023-04-15T12:57:09.508Z,30.10
2023-04-15T12:59:37.695Z,30.10
2023-04-15T13:02:06.221Z,30.00
2023-04-15T13:04:34.545Z,30.00
2023-04-15T13:07:03.448Z,30.00
2023-04-15T13:09:31.659Z,30.10
2023-04-15T13:11:59.927Z,30.20
2023-04-15T13:14:28.054Z,30.30
2023-04-15T13:16:56.445Z,30.30
2023-04-15T13:19:24.671Z,30.30
2023-04-15T13:21:52.835Z,30.30
2023-04-15T13:24:21.248Z,30.30
2023-04-15T13:26:50.497Z,30.30
2023-04-15T13:29:18.750Z,30.30
2023-04-15T13:31:47.331Z,30.30
2023-04-15T13:34:15.478Z,30.40
2023-04-15T13:36:43.869Z,30.40
2023-04-15T13:39:12.147Z,30.50
2023-04-15T13:41:41.206Z,30.40
2023-04-15T13:44:09.347Z,30.50
2023-04-15T13:46:37.676Z,30.50
2023-04-15T13:49:05.739Z,30.50
2023-04-15T13:51:33.884Z,30.50
2023-04-15T13:54:02.525Z,30.60
2023-04-15T13:56:32.899Z,30.50
2023-04-15T13:59:01.562Z,30.60
2023-04-15T14:01:30.300Z,30.60
2023-04-15T14:03:58.520Z,30.60
2023-04-15T14:06:27.032Z,30.60
2023-04-15T14:08:56.285Z,30.60
2023-04-15T14:11:24.395Z,30.60
2023-04-15T14:13:52.632Z,30.60
2023-04-15T14:16:20.927Z,30.70
2023-04-15T14:18:49.027Z,30.70
2023-04-15T14:21:17.313Z,30.70
2023-04-15T14:23:45.502Z,30.70
2023-04-15T14:26:13.727Z,30.70
2023-04-15T14:28:42.017Z,30.60
2023-04-15T14:31:10.172Z,30.50
2023-04-15T14:33:38.341Z,30.50
2023-04-15T14:36:07.408Z,30.60
2023-04-15T14:38:36.316Z,30.70
2023-04-15T14:41:08.254Z,30.60
2023-04-15T14:43:36.649Z,30.80
2023-04-15T14:46:05.082Z,30.80
2023-04-15T14:48:33.552Z,30.90
2023-04-15T14:51:01.815Z,31.00
2023-04-15T14:53:29.970Z,31.10
2023-04-15T14:55:58.341Z,31.10
2023-04-15T14:58:26.651Z,31.10
2023-04-15T15:00:54.857Z,31.10
2023-04-15T15:03:24.256Z,31.20
2023-04-15T15:05:52.673Z,31.10
2023-04-15T15:08:20.802Z,31.00
2023-04-15T15:10:49.882Z,31.00
2023-04-15T15:13:19.147Z,31.00
2023-04-15T15:15:47.510Z,31.10
2023-04-15T15:18:16.476Z,31.10
2023-04-15T15:20:44.845Z,31.00
2023-04-15T15:23:15.032Z,30.90
2023-04-15T15:25:43.723Z,30.90
2023-04-15T15:28:12.170Z,30.90
2023-04-15T15:30:40.417Z,30.80
2023-04-15T15:33:08.673Z,30.80
2023-04-15T15:35:36.931Z,31.00
2023-04-15T15:38:05.526Z,31.10
2023-04-15T15:40:33.889Z,31.20
2023-04-15T15:43:02.060Z,31.30
2023-04-15T15:45:30.502Z,31.50
2023-04-15T15:47:59.201Z,31.60
2023-04-15T15:50:27.509Z,31.80
2023-04-15T15:53:06.843Z,32.00
2023-04-15T15:55:35.016Z,32.10
2023-04-15T15:58:03.208Z,32.30
2023-04-15T16:00:34.352Z,32.40
2023-04-15T16:03:07.303Z,32.30
2023-04-15T16:05:36.805Z,32.40
2023-04-15T16:08:05.342Z,32.60
2023-04-15T16:10:33.670Z,32.70
2023-04-15T16:13:01.933Z,33.00
2023-04-15T16:15:30.368Z,33.40
2023-04-15T16:17:58.640Z,33.40
2023-04-15T16:20:27.711Z,33.30
2023-04-15T16:22:58.692Z,33.30
2023-04-15T16:25:26.917Z,33.30
2023-04-15T16:28:03.530Z,33.50
2023-04-15T16:30:41.176Z,33.70
2023-04-15T16:33:10.230Z,34.00
2023-04-15T16:35:38.294Z,34.10
2023-04-15T16:38:06.574Z,33.90
2023-04-15T16:40:34.842Z,33.60
2023-04-15T16:43:03.808Z,33.20
2023-04-15T16:45:32.088Z,33.00
2023-04-15T16:48:00.395Z,32.90
2023-04-15T16:50:28.849Z,32.80
2023-04-15T16:52:56.988Z,32.70
2023-04-15T16:55:25.178Z,32.70
2023-04-15T16:58:03.346Z,32.90
2023-04-15T17:00:33.038Z,33.40
2023-04-15T17:03:05.755Z,33.80
2023-04-15T17:05:34.499Z,34.20
2023-04-15T17:08:02.892Z,34.30
2023-04-15T17:10:31.958Z,34.40
2023-04-15T17:13:00.225Z,34.40
2023-04-15T17:15:28.505Z,34.60
2023-04-15T17:17:56.833Z,34.70
2023-04-15T17:20:25.266Z,34.60
2023-04-15T17:22:53.551Z,34.60
2023-04-15T17:25:21.847Z,34.40
2023-04-15T17:27:50.100Z,34.30
2023-04-15T17:30:19.820Z,34.20
2023-04-15T17:32:48.196Z,33.90
2023-04-15T17:35:16.529Z,33.70
2023-04-15T17:37:44.604Z,33.50
2023-04-15T17:40:13.232Z,33.30
2023-04-15T17:42:41.687Z,33.20
2023-04-15T17:45:10.634Z,32.90
2023-04-15T17:47:38.858Z,32.70
2023-04-15T17:50:08.198Z,32.40
2023-04-15T17:52:36.398Z,32.20
2023-04-15T17:55:04.830Z,31.90
2023-04-15T17:57:34.042Z,31.60
2023-04-15T18:00:06.760Z,31.60
2023-04-15T18:02:40.882Z,31.40
2023-04-15T18:05:10.221Z,31.30
2023-04-15T18:07:38.399Z,31.30
2023-04-15T18:10:08.554Z,31.10
2023-04-15T18:12:36.970Z,30.90
2023-04-15T18:15:05.366Z,30.80
2023-04-15T18:17:34.273Z,30.60
2023-04-15T18:20:03.320Z,30.50
2023-04-15T18:22:31.579Z,30.40
2023-04-15T18:24:59.861Z,30.30
2023-04-15T18:27:28.676Z,30.10
2023-04-15T18:29:56.943Z,30.10
2023-04-15T18:32:25.587Z,30.00
2023-04-15T18:34:53.909Z,30.00
2023-04-15T18:37:22.162Z,29.90
2023-04-15T18:39:50.452Z,29.80
2023-04-15T18:42:18.776Z,29.80
2023-04-15T18:44:46.936Z,29.70
2023-04-15T18:47:15.586Z,29.60
2023-04-15T18:49:44.107Z,29.50
2023-04-15T18:52:12.522Z,29.50
2023-04-15T18:54:40.938Z,29.50
2023-04-15T18:57:09.213Z,29.50
2023-04-15T18:59:37.266Z,29.40
2023-04-15T19:02:05.585Z,29.40
2023-04-15T19:04:34.163Z,29.30
2023-04-15T19:07:02.868Z,29.30
2023-04-15T19:09:30.916Z,29.30
2023-04-15T19:11:59.118Z,29.20
2023-04-15T19:14:27.426Z,29.20
2023-04-15T19:16:55.583Z,29.20
2023-04-15T19:19:23.893Z,29.10
2023-04-15T19:21:53.486Z,29.10
2023-04-15T19:24:21.670Z,29.10
2023-04-15T19:26:50.821Z,29.10
2023-04-15T19:29:19.103Z,29.00
2023-04-15T19:31:47.298Z,29.00
2023-04-15T19:34:15.655Z,29.00
2023-04-15T19:36:43.946Z,29.00
2023-04-15T19:39:12.647Z,29.00
2023-04-15T19:41:40.926Z,29.00
2023-04-15T19:44:09.218Z,28.90
2023-04-15T19:46:37.523Z,28.90
2023-04-15T19:49:06.219Z,28.90
2023-04-15T19:51:34.760Z,28.90
2023-04-15T19:54:02.949Z,28.90
2023-04-15T19:56:33.634Z,28.90
2023-04-15T19:59:02.914Z,28.90
2023-04-15T20:01:31.504Z,28.90
2023-04-15T20:04:00.203Z,28.90
2023-04-15T20:06:28.664Z,28.80
2023-04-15T20:08:59.730Z,28.80
2023-04-15T20:11:28.010Z,28.80
2023-04-15T20:14:16.276Z,28.80
2023-04-15T20:16:44.576Z,28.80
2023-04-15T20:19:13.801Z,28.80
2023-04-15T20:21:42.153Z,28.80
2023-04-15T20:24:10.502Z,28.70
2023-04-15T20:26:38.878Z,28.70
2023-04-15T20:29:07.242Z,28.70
2023-04-15T20:31:35.936Z,28.70
2023-04-15T20:34:04.258Z,28.70
2023-04-15T20:36:32.470Z,28.70
2023-04-15T20:39:00.654Z,28.70
2023-04-15T20:41:28.832Z,28.70
2023-04-15T20:43:57.196Z,28.70
2023-04-15T20:46:27.385Z,28.60
2023-04-15T20:48:56.282Z,28.70
2023-04-15T20:51:24.442Z,28.70
2023-04-15T20:53:52.674Z,28.70
2023-04-15T20:56:20.964Z,28.60
2023-04-15T20:58:49.282Z,28.60
2023-04-15T21:01:17.575Z,28.60
2023-04-15T21:03:45.985Z,28.60
2023-04-15T21:06:14.384Z,28.60
2023-04-15T21:08:42.692Z,28.60
2023-04-15T21:11:11.092Z,28.60
2023-04-15T21:13:39.404Z,28.60
2023-04-15T21:16:07.762Z,28.60
2023-04-15T21:18:36.197Z,28.60
2023-04-15T21:21:04.559Z,28.60
2023-04-15T21:23:33.063Z,28.60
2023-04-15T21:26:01.270Z,28.70
2023-04-15T21:28:29.360Z,28.60
2023-04-15T21:30:58.308Z,28.60
2023-04-15T21:33:26.666Z,28.70
2023-04-15T21:35:55.192Z,28.70
2023-04-15T21:38:23.576Z,28.60
2023-04-15T21:40:51.989Z,28.60
2023-04-15T21:43:20.295Z,28.60
2023-04-15T21:46:20.838Z,28.60
2023-04-15T21:48:37.166Z,28.60
2023-04-15T21:51:05.590Z,28.60
2023-04-15T21:53:33.897Z,28.60
2023-04-15T21:56:02.291Z,28.60
2023-04-15T21:58:30.372Z,28.50
2023-04-15T22:00:58.881Z,28.50
2023-04-15T22:03:30.505Z,28.60
2023-04-15T22:05:59.111Z,28.50
2023-04-15T22:08:27.310Z,28.50
2023-04-15T22:10:56.211Z,28.50
2023-04-15T22:13:24.617Z,28.50
2023-04-15T22:15:52.890Z,28.50
2023-04-15T22:18:21.284Z,28.50
2023-04-15T22:20:49.495Z,28.50
2023-04-15T22:23:18.006Z,28.50
2023-04-15T22:25:46.580Z,28.50
2023-04-15T22:28:14.973Z,28.40
2023-04-15T22:30:43.725Z,28.40
2023-04-15T22:33:12.099Z,28.50
2023-04-15T22:35:40.597Z,28.40
2023-04-15T22:38:08.910Z,28.40
2023-04-15T22:40:37.170Z,28.40
2023-04-15T22:43:05.502Z,28.40
2023-04-15T22:45:33.826Z,28.40
2023-04-15T22:48:02.467Z,28.40
2023-04-15T22:50:30.616Z,28.40
2023-04-15T22:52:59.007Z,28.40
2023-04-15T22:55:27.279Z,28.40
2023-04-15T22:57:55.911Z,28.40
2023-04-15T23:00:24.069Z,28.40
2023-04-15T23:02:52.625Z,28.40
2023-04-15T23:05:21.224Z,28.40
2023-04-15T23:07:49.458Z,28.40
2023-04-15T23:10:17.832Z,28.40
2023-04-15T23:12:47.386Z,28.40
2023-04-15T23:15:15.880Z,28.40
2023-04-15T23:17:45.673Z,28.40
2023-04-15T23:20:13.982Z,28.40
2023-04-15T23:22:42.462Z,28.40
2023-04-15T23:25:10.953Z,28.40
2023-04-15T23:27:39.488Z,28.40
2023-04-15T23:30:08.473Z,28.40
2023-04-15T23:32:37.047Z,28.40
2023-04-15T23:35:05.985Z,28.40
2023-04-15T23:37:34.440Z,28.40
2023-04-15T23:40:02.748Z,28.30
2023-04-15T23:42:31.066Z,28.40
2023-04-15T23:44:59.411Z,28.30
2023-04-15T23:47:27.709Z,28.30
2023-04-15T23:49:55.973Z,28.30
2023-04-15T23:52:24.195Z,28.30
2023-04-15T23:54:52.502Z,28.30
2023-04-15T23:57:20.808Z,28.30
2023-04-15T23:59:48.983Z,28.30
